sensor_id;sensor_type;location;lat;lon;timestamp;P1;durP1;ratioP1;P2;durP2;ratioP2
46282;SDS011;32017;43.700;11.820;2023-03-01T00:01:02;7.18;;;7.07;;
46282;SDS011;32017;43.700;11.820;2023-03-01T00:03:23;7.07;;;6.97;;
46282;SDS011;32017;43.700;11.820;2023-03-01T00:05:44;9.00;;;8.80;;
46282;SDS011;32017;43.700;11.820;2023-03-01T00:08:05;9.10;;;9.00;;
46282;SDS011;32017;43.700;11.820;2023-03-01T00:10:25;7.68;;;7.50;;
46282;SDS011;32017;43.700;11.820;2023-03-01T00:12:46;8.07;;;7.93;;
46282;SDS011;32017;43.700;11.820;2023-03-01T00:15:06;9.27;;;8.90;;
46282;SDS011;32017;43.700;11.820;2023-03-01T00:17:27;8.27;;;8.18;;
46282;SDS011;32017;43.700;11.820;2023-03-01T00:19:48;7.53;;;7.43;;
46282;SDS011;32017;43.700;11.820;2023-03-01T00:22:09;9.02;;;8.90;;
46282;SDS011;32017;43.700;11.820;2023-03-01T00:24:29;8.77;;;8.68;;
46282;SDS011;32017;43.700;11.820;2023-03-01T00:26:52;9.50;;;9.30;;
46282;SDS011;32017;43.700;11.820;2023-03-01T00:29:14;9.15;;;8.95;;
46282;SDS011;32017;43.700;11.820;2023-03-01T00:31:35;8.77;;;8.68;;
46282;SDS011;32017;43.700;11.820;2023-03-01T00:33:56;9.27;;;8.98;;
46282;SDS011;32017;43.700;11.820;2023-03-01T00:36:17;8.67;;;8.47;;
46282;SDS011;32017;43.700;11.820;2023-03-01T00:38:44;9.18;;;9.07;;
46282;SDS011;32017;43.700;11.820;2023-03-01T00:41:06;9.15;;;9.05;;
46282;SDS011;32017;43.700;11.820;2023-03-01T00:43:26;8.50;;;8.40;;
46282;SDS011;32017;43.700;11.820;2023-03-01T00:45:47;9.13;;;8.93;;
46282;SDS011;32017;43.700;11.820;2023-03-01T00:48:07;8.88;;;8.77;;
46282;SDS011;32017;43.700;11.820;2023-03-01T00:50:26;8.05;;;7.95;;
46282;SDS011;32017;43.700;11.820;2023-03-01T00:52:46;8.25;;;8.02;;
46282;SDS011;32017;43.700;11.820;2023-03-01T00:55:11;7.32;;;7.15;;
46282;SDS011;32017;43.700;11.820;2023-03-01T00:57:31;7.25;;;7.15;;
46282;SDS011;32017;43.700;11.820;2023-03-01T00:59:51;7.55;;;7.45;;
46282;SDS011;32017;43.700;11.820;2023-03-01T01:02:14;6.95;;;6.85;;
46282;SDS011;32017;43.700;11.820;2023-03-01T01:04:34;7.05;;;6.95;;
46282;SDS011;32017;43.700;11.820;2023-03-01T01:06:56;7.03;;;6.93;;
46282;SDS011;32017;43.700;11.820;2023-03-01T01:09:16;6.25;;;6.15;;
46282;SDS011;32017;43.700;11.820;2023-03-01T01:11:37;6.43;;;6.35;;
46282;SDS011;32017;43.700;11.820;2023-03-01T01:13:57;7.20;;;7.20;;
46282;SDS011;32017;43.700;11.820;2023-03-01T01:16:19;6.40;;;6.40;;
46282;SDS011;32017;43.700;11.820;2023-03-01T01:18:40;6.55;;;6.55;;
46282;SDS011;32017;43.700;11.820;2023-03-01T01:21:11;6.22;;;6.15;;
46282;SDS011;32017;43.700;11.820;2023-03-01T01:23:33;6.47;;;6.47;;
46282;SDS011;32017;43.700;11.820;2023-03-01T01:25:53;6.10;;;6.10;;
46282;SDS011;32017;43.700;11.820;2023-03-01T01:28:13;5.95;;;5.95;;
46282;SDS011;32017;43.700;11.820;2023-03-01T01:30:33;6.45;;;6.45;;
46282;SDS011;32017;43.700;11.820;2023-03-01T01:32:53;6.68;;;6.68;;
46282;SDS011;32017;43.700;11.820;2023-03-01T01:35:14;6.78;;;6.78;;
46282;SDS011;32017;43.700;11.820;2023-03-01T01:37:35;7.47;;;7.38;;
46282;SDS011;32017;43.700;11.820;2023-03-01T01:39:55;7.60;;;7.57;;
46282;SDS011;32017;43.700;11.820;2023-03-01T01:42:16;7.15;;;7.15;;
46282;SDS011;32017;43.700;11.820;2023-03-01T01:44:37;6.55;;;6.47;;
46282;SDS011;32017;43.700;11.820;2023-03-01T01:47:04;7.03;;;7.03;;
46282;SDS011;32017;43.700;11.820;2023-03-01T01:52:17;7.35;;;7.25;;
46282;SDS011;32017;43.700;11.820;2023-03-01T01:57:27;7.05;;;6.95;;
46282;SDS011;32017;43.700;11.820;2023-03-01T01:59:54;7.05;;;7.05;;
46282;SDS011;32017;43.700;11.820;2023-03-01T02:02:19;6.20;;;6.20;;
46282;SDS011;32017;43.700;11.820;2023-03-01T02:04:39;7.00;;;6.93;;
46282;SDS011;32017;43.700;11.820;2023-03-01T02:07:21;6.38;;;6.38;;
46282;SDS011;32017;43.700;11.820;2023-03-01T02:09:48;7.05;;;7.00;;
46282;SDS011;32017;43.700;11.820;2023-03-01T02:12:14;7.25;;;7.15;;
46282;SDS011;32017;43.700;11.820;2023-03-01T02:14:36;8.20;;;8.10;;
46282;SDS011;32017;43.700;11.820;2023-03-01T02:16:57;6.97;;;6.97;;
46282;SDS011;32017;43.700;11.820;2023-03-01T02:19:26;7.97;;;7.88;;
46282;SDS011;32017;43.700;11.820;2023-03-01T02:27:58;7.88;;;7.78;;
46282;SDS011;32017;43.700;11.820;2023-03-01T02:30:25;7.18;;;7.07;;
46282;SDS011;32017;43.700;11.820;2023-03-01T02:32:45;7.60;;;7.50;;
46282;SDS011;32017;43.700;11.820;2023-03-01T02:35:06;8.00;;;7.90;;
46282;SDS011;32017;43.700;11.820;2023-03-01T02:37:33;7.97;;;7.72;;
46282;SDS011;32017;43.700;11.820;2023-03-01T02:39:57;6.95;;;6.95;;
46282;SDS011;32017;43.700;11.820;2023-03-01T02:42:24;7.65;;;7.55;;
46282;SDS011;32017;43.700;11.820;2023-03-01T02:44:49;7.30;;;7.30;;
46282;SDS011;32017;43.700;11.820;2023-03-01T02:47:11;7.03;;;6.95;;
46282;SDS011;32017;43.700;11.820;2023-03-01T02:49:33;6.80;;;6.80;;
46282;SDS011;32017;43.700;11.820;2023-03-01T02:54:28;6.80;;;6.80;;
46282;SDS011;32017;43.700;11.820;2023-03-01T02:56:57;6.63;;;6.63;;
46282;SDS011;32017;43.700;11.820;2023-03-01T02:59:18;7.53;;;7.43;;
46282;SDS011;32017;43.700;11.820;2023-03-01T03:01:45;6.60;;;6.50;;
46282;SDS011;32017;43.700;11.820;2023-03-01T03:04:08;6.53;;;6.53;;
46282;SDS011;32017;43.700;11.820;2023-03-01T03:06:38;7.88;;;7.78;;
46282;SDS011;32017;43.700;11.820;2023-03-01T03:08:58;6.95;;;6.95;;
46282;SDS011;32017;43.700;11.820;2023-03-01T03:11:19;7.80;;;7.70;;
46282;SDS011;32017;43.700;11.820;2023-03-01T03:13:40;7.35;;;7.25;;
46282;SDS011;32017;43.700;11.820;2023-03-01T03:16:08;6.15;;;6.05;;
46282;SDS011;32017;43.700;11.820;2023-03-01T03:18:28;6.80;;;6.70;;
46282;SDS011;32017;43.700;11.820;2023-03-01T03:20:48;6.90;;;6.90;;
46282;SDS011;32017;43.700;11.820;2023-03-01T03:23:12;6.57;;;6.53;;
46282;SDS011;32017;43.700;11.820;2023-03-01T03:25:33;6.15;;;6.15;;
46282;SDS011;32017;43.700;11.820;2023-03-01T03:27:56;7.90;;;7.80;;
46282;SDS011;32017;43.700;11.820;2023-03-01T03:30:18;5.97;;;5.97;;
46282;SDS011;32017;43.700;11.820;2023-03-01T03:32:39;7.47;;;7.38;;
46282;SDS011;32017;43.700;11.820;2023-03-01T03:35:01;7.45;;;7.35;;
46282;SDS011;32017;43.700;11.820;2023-03-01T03:37:29;7.20;;;7.20;;
46282;SDS011;32017;43.700;11.820;2023-03-01T03:40:08;7.45;;;7.35;;
46282;SDS011;32017;43.700;11.820;2023-03-01T03:42:35;7.80;;;7.70;;
46282;SDS011;32017;43.700;11.820;2023-03-01T03:44:55;7.95;;;7.85;;
46282;SDS011;32017;43.700;11.820;2023-03-01T03:49:39;7.68;;;7.57;;
46282;SDS011;32017;43.700;11.820;2023-03-01T03:54:24;8.48;;;8.38;;
46282;SDS011;32017;43.700;11.820;2023-03-01T03:56:45;7.05;;;6.95;;
46282;SDS011;32017;43.700;11.820;2023-03-01T03:59:05;7.43;;;7.32;;
46282;SDS011;32017;43.700;11.820;2023-03-01T04:01:25;8.18;;;8.07;;
46282;SDS011;32017;43.700;11.820;2023-03-01T04:03:45;9.05;;;8.95;;
46282;SDS011;32017;43.700;11.820;2023-03-01T04:08:51;7.65;;;7.55;;
46282;SDS011;32017;43.700;11.820;2023-03-01T04:11:18;9.35;;;9.15;;
46282;SDS011;32017;43.700;11.820;2023-03-01T04:13:47;6.55;;;6.47;;
46282;SDS011;32017;43.700;11.820;2023-03-01T04:18:54;7.13;;;7.03;;
46282;SDS011;32017;43.700;11.820;2023-03-01T04:24:01;7.95;;;7.85;;
46282;SDS011;32017;43.700;11.820;2023-03-01T04:26:23;7.80;;;7.70;;
46282;SDS011;32017;43.700;11.820;2023-03-01T04:28:43;7.53;;;7.43;;
46282;SDS011;32017;43.700;11.820;2023-03-01T04:31:07;7.95;;;7.85;;
46282;SDS011;32017;43.700;11.820;2023-03-01T04:33:38;5.75;;;5.65;;
46282;SDS011;32017;43.700;11.820;2023-03-01T04:36:06;6.88;;;6.78;;
46282;SDS011;32017;43.700;11.820;2023-03-01T04:38:28;7.35;;;7.03;;
46282;SDS011;32017;43.700;11.820;2023-03-01T04:40:48;8.60;;;8.20;;
46282;SDS011;32017;43.700;11.820;2023-03-01T04:43:08;7.30;;;7.20;;
46282;SDS011;32017;43.700;11.820;2023-03-01T04:45:29;8.20;;;8.05;;
46282;SDS011;32017;43.700;11.820;2023-03-01T04:47:51;6.95;;;6.85;;
46282;SDS011;32017;43.700;11.820;2023-03-01T04:50:12;6.97;;;6.88;;
46282;SDS011;32017;43.700;11.820;2023-03-01T04:52:34;8.00;;;7.88;;
46282;SDS011;32017;43.700;11.820;2023-03-01T04:54:54;8.00;;;7.90;;
46282;SDS011;32017;43.700;11.820;2023-03-01T04:57:18;8.52;;;8.32;;
46282;SDS011;32017;43.700;11.820;2023-03-01T04:59:39;8.20;;;8.10;;
46282;SDS011;32017;43.700;11.820;2023-03-01T05:01:59;6.78;;;6.68;;
46282;SDS011;32017;43.700;11.820;2023-03-01T05:04:20;7.93;;;7.82;;
46282;SDS011;32017;43.700;11.820;2023-03-01T05:06:43;7.13;;;7.03;;
46282;SDS011;32017;43.700;11.820;2023-03-01T05:09:03;9.02;;;8.82;;
46282;SDS011;32017;43.700;11.820;2023-03-01T05:11:26;7.43;;;7.32;;
46282;SDS011;32017;43.700;11.820;2023-03-01T05:13:47;7.30;;;7.20;;
46282;SDS011;32017;43.700;11.820;2023-03-01T05:16:10;7.80;;;7.60;;
46282;SDS011;32017;43.700;11.820;2023-03-01T05:18:30;7.70;;;7.60;;
46282;SDS011;32017;43.700;11.820;2023-03-01T05:20:52;6.95;;;6.85;;
46282;SDS011;32017;43.700;11.820;2023-03-01T05:23:15;6.68;;;6.57;;
46282;SDS011;32017;43.700;11.820;2023-03-01T05:25:35;7.63;;;7.53;;
46282;SDS011;32017;43.700;11.820;2023-03-01T05:28:02;6.63;;;6.53;;
46282;SDS011;32017;43.700;11.820;2023-03-01T05:30:23;7.15;;;7.05;;
46282;SDS011;32017;43.700;11.820;2023-03-01T05:32:45;9.10;;;8.75;;
46282;SDS011;32017;43.700;11.820;2023-03-01T05:35:07;7.47;;;7.38;;
46282;SDS011;32017;43.700;11.820;2023-03-01T05:37:28;7.20;;;7.10;;
46282;SDS011;32017;43.700;11.820;2023-03-01T05:39:48;8.70;;;8.52;;
46282;SDS011;32017;43.700;11.820;2023-03-01T05:42:10;7.82;;;7.72;;
46282;SDS011;32017;43.700;11.820;2023-03-01T05:44:31;9.15;;;9.05;;
46282;SDS011;32017;43.700;11.820;2023-03-01T05:46:53;8.90;;;8.80;;
46282;SDS011;32017;43.700;11.820;2023-03-01T05:49:17;7.68;;;7.57;;
46282;SDS011;32017;43.700;11.820;2023-03-01T05:51:40;9.20;;;9.10;;
46282;SDS011;32017;43.700;11.820;2023-03-01T05:54:00;10.05;;;9.95;;
46282;SDS011;32017;43.700;11.820;2023-03-01T05:56:22;9.25;;;9.15;;
46282;SDS011;32017;43.700;11.820;2023-03-01T05:58:42;8.55;;;8.45;;
46282;SDS011;32017;43.700;11.820;2023-03-01T06:01:04;8.77;;;8.68;;
46282;SDS011;32017;43.700;11.820;2023-03-01T06:03:24;8.00;;;7.90;;
46282;SDS011;32017;43.700;11.820;2023-03-01T06:05:44;7.55;;;7.45;;
46282;SDS011;32017;43.700;11.820;2023-03-01T06:08:05;7.63;;;7.53;;
46282;SDS011;32017;43.700;11.820;2023-03-01T06:10:24;6.30;;;6.30;;
46282;SDS011;32017;43.700;11.820;2023-03-01T06:12:46;6.95;;;6.95;;
46282;SDS011;32017;43.700;11.820;2023-03-01T06:15:06;8.60;;;8.50;;
46282;SDS011;32017;43.700;11.820;2023-03-01T06:17:29;8.82;;;8.73;;
46282;SDS011;32017;43.700;11.820;2023-03-01T06:19:50;6.55;;;6.55;;
46282;SDS011;32017;43.700;11.820;2023-03-01T06:22:11;6.25;;;6.15;;
46282;SDS011;32017;43.700;11.820;2023-03-01T06:24:31;7.78;;;7.68;;
46282;SDS011;32017;43.700;11.820;2023-03-01T06:26:52;8.02;;;7.78;;
46282;SDS011;32017;43.700;11.820;2023-03-01T06:29:12;6.93;;;6.82;;
46282;SDS011;32017;43.700;11.820;2023-03-01T06:31:34;7.88;;;7.78;;
46282;SDS011;32017;43.700;11.820;2023-03-01T06:33:54;8.00;;;7.63;;
46282;SDS011;32017;43.700;11.820;2023-03-01T06:36:14;8.07;;;7.97;;
46282;SDS011;32017;43.700;11.820;2023-03-01T06:38:37;6.18;;;6.18;;
46282;SDS011;32017;43.700;11.820;2023-03-01T06:40:58;6.30;;;6.30;;
46282;SDS011;32017;43.700;11.820;2023-03-01T06:43:18;7.45;;;7.43;;
46282;SDS011;32017;43.700;11.820;2023-03-01T06:45:38;6.70;;;6.63;;
46282;SDS011;32017;43.700;11.820;2023-03-01T06:48:02;8.48;;;8.38;;
46282;SDS011;32017;43.700;11.820;2023-03-01T06:50:24;10.77;;;10.48;;
46282;SDS011;32017;43.700;11.820;2023-03-01T06:52:44;8.52;;;8.38;;
46282;SDS011;32017;43.700;11.820;2023-03-01T06:55:05;7.07;;;6.97;;
46282;SDS011;32017;43.700;11.820;2023-03-01T06:57:28;8.82;;;8.50;;
46282;SDS011;32017;43.700;11.820;2023-03-01T06:59:48;8.55;;;8.45;;
46282;SDS011;32017;43.700;11.820;2023-03-01T07:02:12;8.40;;;8.30;;
46282;SDS011;32017;43.700;11.820;2023-03-01T07:04:35;8.80;;;8.50;;
46282;SDS011;32017;43.700;11.820;2023-03-01T07:06:55;7.70;;;7.60;;
46282;SDS011;32017;43.700;11.820;2023-03-01T07:09:15;7.72;;;7.63;;
46282;SDS011;32017;43.700;11.820;2023-03-01T07:11:39;8.15;;;8.05;;
46282;SDS011;32017;43.700;11.820;2023-03-01T07:14:00;7.32;;;7.22;;
46282;SDS011;32017;43.700;11.820;2023-03-01T07:16:20;8.10;;;8.00;;
46282;SDS011;32017;43.700;11.820;2023-03-01T07:18:40;7.05;;;6.95;;
46282;SDS011;32017;43.700;11.820;2023-03-01T07:21:04;8.27;;;8.18;;
46282;SDS011;32017;43.700;11.820;2023-03-01T07:23:25;7.80;;;7.70;;
46282;SDS011;32017;43.700;11.820;2023-03-01T07:25:50;8.27;;;8.18;;
46282;SDS011;32017;43.700;11.820;2023-03-01T07:28:13;8.18;;;8.07;;
46282;SDS011;32017;43.700;11.820;2023-03-01T07:30:33;7.00;;;6.90;;
46282;SDS011;32017;43.700;11.820;2023-03-01T07:32:54;7.35;;;7.25;;
46282;SDS011;32017;43.700;11.820;2023-03-01T07:35:15;7.25;;;7.20;;
46282;SDS011;32017;43.700;11.820;2023-03-01T07:37:37;4.88;;;4.88;;
46282;SDS011;32017;43.700;11.820;2023-03-01T07:39:57;6.80;;;6.80;;
46282;SDS011;32017;43.700;11.820;2023-03-01T07:42:16;7.20;;;6.97;;
46282;SDS011;32017;43.700;11.820;2023-03-01T07:44:36;6.85;;;6.75;;
46282;SDS011;32017;43.700;11.820;2023-03-01T07:46:56;7.00;;;6.90;;
46282;SDS011;32017;43.700;11.820;2023-03-01T07:49:17;7.28;;;7.18;;
46282;SDS011;32017;43.700;11.820;2023-03-01T07:51:36;8.73;;;8.63;;
46282;SDS011;32017;43.700;11.820;2023-03-01T07:53:56;7.07;;;6.97;;
46282;SDS011;32017;43.700;11.820;2023-03-01T07:56:17;8.43;;;8.32;;
46282;SDS011;32017;43.700;11.820;2023-03-01T07:58:39;6.90;;;6.80;;
46282;SDS011;32017;43.700;11.820;2023-03-01T08:01:02;10.30;;;10.10;;
46282;SDS011;32017;43.700;11.820;2023-03-01T08:03:23;11.75;;;11.45;;
46282;SDS011;32017;43.700;11.820;2023-03-01T08:05:43;8.93;;;8.82;;
46282;SDS011;32017;43.700;11.820;2023-03-01T08:08:03;13.77;;;13.18;;
46282;SDS011;32017;43.700;11.820;2023-03-01T08:10:24;10.93;;;10.52;;
46282;SDS011;32017;43.700;11.820;2023-03-01T08:12:45;17.08;;;15.85;;
46282;SDS011;32017;43.700;11.820;2023-03-01T08:15:04;11.50;;;11.00;;
46282;SDS011;32017;43.700;11.820;2023-03-01T08:17:25;14.63;;;13.75;;
46282;SDS011;32017;43.700;11.820;2023-03-01T08:19:45;10.85;;;10.68;;
46282;SDS011;32017;43.700;11.820;2023-03-01T08:22:05;9.25;;;9.15;;
46282;SDS011;32017;43.700;11.820;2023-03-01T08:24:25;9.80;;;9.70;;
46282;SDS011;32017;43.700;11.820;2023-03-01T08:26:46;9.52;;;9.30;;
46282;SDS011;32017;43.700;11.820;2023-03-01T08:29:06;9.40;;;9.30;;
46282;SDS011;32017;43.700;11.820;2023-03-01T08:31:28;9.88;;;9.68;;
46282;SDS011;32017;43.700;11.820;2023-03-01T08:33:52;13.55;;;12.57;;
46282;SDS011;32017;43.700;11.820;2023-03-01T08:38:35;13.32;;;12.60;;
46282;SDS011;32017;43.700;11.820;2023-03-01T08:40:58;10.68;;;10.38;;
46282;SDS011;32017;43.700;11.820;2023-03-01T08:43:19;10.38;;;10.07;;
46282;SDS011;32017;43.700;11.820;2023-03-01T08:45:40;11.15;;;10.95;;
46282;SDS011;32017;43.700;11.820;2023-03-01T08:48:00;13.93;;;13.20;;
46282;SDS011;32017;43.700;11.820;2023-03-01T08:50:20;13.82;;;12.98;;
46282;SDS011;32017;43.700;11.820;2023-03-01T08:52:43;12.57;;;11.98;;
46282;SDS011;32017;43.700;11.820;2023-03-01T08:55:02;9.10;;;9.00;;
46282;SDS011;32017;43.700;11.820;2023-03-01T08:57:22;7.57;;;7.47;;
46282;SDS011;32017;43.700;11.820;2023-03-01T08:59:42;7.68;;;7.57;;
46282;SDS011;32017;43.700;11.820;2023-03-01T09:02:04;7.45;;;7.22;;
46282;SDS011;32017;43.700;11.820;2023-03-01T09:04:29;6.80;;;6.70;;
46282;SDS011;32017;43.700;11.820;2023-03-01T09:06:51;8.60;;;8.50;;
46282;SDS011;32017;43.700;11.820;2023-03-01T09:09:15;6.93;;;6.82;;
46282;SDS011;32017;43.700;11.820;2023-03-01T09:11:37;8.27;;;8.07;;
46282;SDS011;32017;43.700;11.820;2023-03-01T09:13:57;9.52;;;9.35;;
46282;SDS011;32017;43.700;11.820;2023-03-01T09:16:19;6.15;;;6.05;;
46282;SDS011;32017;43.700;11.820;2023-03-01T09:18:39;7.40;;;7.30;;
46282;SDS011;32017;43.700;11.820;2023-03-01T09:21:00;6.40;;;6.40;;
46282;SDS011;32017;43.700;11.820;2023-03-01T09:23:26;6.25;;;6.25;;
46282;SDS011;32017;43.700;11.820;2023-03-01T09:25:46;8.05;;;7.95;;
46282;SDS011;32017;43.700;11.820;2023-03-01T09:28:06;8.18;;;8.07;;
46282;SDS011;32017;43.700;11.820;2023-03-01T09:30:26;7.22;;;7.13;;
46282;SDS011;32017;43.700;11.820;2023-03-01T09:32:47;7.22;;;7.13;;
46282;SDS011;32017;43.700;11.820;2023-03-01T09:35:08;5.10;;;5.10;;
46282;SDS011;32017;43.700;11.820;2023-03-01T09:37:29;6.22;;;6.22;;
46282;SDS011;32017;43.700;11.820;2023-03-01T09:39:53;6.20;;;6.05;;
46282;SDS011;32017;43.700;11.820;2023-03-01T09:42:14;5.47;;;5.47;;
46282;SDS011;32017;43.700;11.820;2023-03-01T09:44:40;6.65;;;6.55;;
46282;SDS011;32017;43.700;11.820;2023-03-01T09:47:19;7.20;;;7.10;;
46282;SDS011;32017;43.700;11.820;2023-03-01T09:49:44;5.75;;;5.75;;
46282;SDS011;32017;43.700;11.820;2023-03-01T09:52:29;7.63;;;7.43;;
46282;SDS011;32017;43.700;11.820;2023-03-01T09:55:04;8.27;;;8.07;;
46282;SDS011;32017;43.700;11.820;2023-03-01T09:57:49;7.57;;;7.47;;
46282;SDS011;32017;43.700;11.820;2023-03-01T10:05:12;9.80;;;9.70;;
46282;SDS011;32017;43.700;11.820;2023-03-01T10:10:31;7.07;;;6.97;;
46282;SDS011;32017;43.700;11.820;2023-03-01T10:13:03;6.70;;;6.63;;
46282;SDS011;32017;43.700;11.820;2023-03-01T10:18:42;7.25;;;7.15;;
46282;SDS011;32017;43.700;11.820;2023-03-01T10:21:09;8.07;;;7.97;;
46282;SDS011;32017;43.700;11.820;2023-03-01T10:23:36;12.05;;;11.70;;
46282;SDS011;32017;43.700;11.820;2023-03-01T10:26:08;10.05;;;9.75;;
46282;SDS011;32017;43.700;11.820;2023-03-01T10:29:05;8.82;;;8.63;;
46282;SDS011;32017;43.700;11.820;2023-03-01T10:31:41;7.93;;;7.82;;
46282;SDS011;32017;43.700;11.820;2023-03-01T10:34:04;8.65;;;8.55;;
46282;SDS011;32017;43.700;11.820;2023-03-01T10:36:31;9.80;;;9.70;;
46282;SDS011;32017;43.700;11.820;2023-03-01T10:41:15;7.68;;;7.55;;
46282;SDS011;32017;43.700;11.820;2023-03-01T10:43:51;7.22;;;7.22;;
46282;SDS011;32017;43.700;11.820;2023-03-01T10:51:38;6.22;;;6.03;;
46282;SDS011;32017;43.700;11.820;2023-03-01T10:54:00;6.60;;;6.57;;
46282;SDS011;32017;43.700;11.820;2023-03-01T10:56:22;4.72;;;4.72;;
46282;SDS011;32017;43.700;11.820;2023-03-01T11:03:38;7.60;;;7.50;;
46282;SDS011;32017;43.700;11.820;2023-03-01T11:08:32;9.30;;;9.20;;
46282;SDS011;32017;43.700;11.820;2023-03-01T11:11:05;14.18;;;13.52;;
46282;SDS011;32017;43.700;11.820;2023-03-01T11:13:58;11.63;;;11.43;;
46282;SDS011;32017;43.700;11.820;2023-03-01T11:16:47;13.85;;;13.43;;
46282;SDS011;32017;43.700;11.820;2023-03-01T11:19:17;9.43;;;9.23;;
46282;SDS011;32017;43.700;11.820;2023-03-01T11:24:27;7.70;;;7.60;;
46282;SDS011;32017;43.700;11.820;2023-03-01T11:27:04;13.35;;;12.75;;
46282;SDS011;32017;43.700;11.820;2023-03-01T11:29:43;13.02;;;12.75;;
46282;SDS011;32017;43.700;11.820;2023-03-01T11:35:27;19.08;;;18.67;;
46282;SDS011;32017;43.700;11.820;2023-03-01T11:42:59;27.60;;;26.83;;
46282;SDS011;32017;43.700;11.820;2023-03-01T11:45:39;18.55;;;18.08;;
46282;SDS011;32017;43.700;11.820;2023-03-01T11:54:10;12.07;;;11.87;;
46282;SDS011;32017;43.700;11.820;2023-03-01T11:56:41;12.35;;;12.13;;
46282;SDS011;32017;43.700;11.820;2023-03-01T12:01:40;13.18;;;12.77;;
46282;SDS011;32017;43.700;11.820;2023-03-01T12:07:13;16.67;;;15.77;;
46282;SDS011;32017;43.700;11.820;2023-03-01T12:20:34;17.10;;;16.27;;
46282;SDS011;32017;43.700;11.820;2023-03-01T12:26:10;23.00;;;21.25;;
46282;SDS011;32017;43.700;11.820;2023-03-01T12:37:12;14.02;;;13.43;;
46282;SDS011;32017;43.700;11.820;2023-03-01T12:40:05;18.25;;;17.27;;
46282;SDS011;32017;43.700;11.820;2023-03-01T12:42:54;20.73;;;19.70;;
46282;SDS011;32017;43.700;11.820;2023-03-01T12:51:03;18.85;;;17.73;;
46282;SDS011;32017;43.700;11.820;2023-03-01T12:53:30;16.58;;;15.90;;
46282;SDS011;32017;43.700;11.820;2023-03-01T12:55:56;13.73;;;13.43;;
46282;SDS011;32017;43.700;11.820;2023-03-01T13:09:14;32.28;;;29.02;;
46282;SDS011;32017;43.700;11.820;2023-03-01T13:11:44;42.03;;;36.70;;
46282;SDS011;32017;43.700;11.820;2023-03-01T13:16:42;28.92;;;26.23;;
46282;SDS011;32017;43.700;11.820;2023-03-01T13:19:14;32.13;;;28.95;;
46282;SDS011;32017;43.700;11.820;2023-03-01T13:21:36;37.70;;;33.63;;
46282;SDS011;32017;43.700;11.820;2023-03-01T13:23:56;29.85;;;27.25;;
46282;SDS011;32017;43.700;11.820;2023-03-01T13:26:17;32.72;;;29.90;;
46282;SDS011;32017;43.700;11.820;2023-03-01T13:31:09;35.50;;;32.20;;
46282;SDS011;32017;43.700;11.820;2023-03-01T13:33:53;33.85;;;30.63;;
46282;SDS011;32017;43.700;11.820;2023-03-01T13:41:15;24.08;;;22.45;;
46282;SDS011;32017;43.700;11.820;2023-03-01T13:43:55;23.08;;;21.48;;
46282;SDS011;32017;43.700;11.820;2023-03-01T13:46:22;20.58;;;19.27;;
46282;SDS011;32017;43.700;11.820;2023-03-01T13:48:44;19.73;;;18.33;;
46282;SDS011;32017;43.700;11.820;2023-03-01T13:51:08;24.10;;;21.95;;
46282;SDS011;32017;43.700;11.820;2023-03-01T13:53:31;27.10;;;24.92;;
46282;SDS011;32017;43.700;11.820;2023-03-01T13:55:55;27.48;;;24.88;;
46282;SDS011;32017;43.700;11.820;2023-03-01T14:00:41;28.95;;;26.00;;
46282;SDS011;32017;43.700;11.820;2023-03-01T14:05:39;17.35;;;15.82;;
46282;SDS011;32017;43.700;11.820;2023-03-01T14:10:30;17.70;;;16.65;;
46282;SDS011;32017;43.700;11.820;2023-03-01T14:18:58;20.55;;;19.33;;
46282;SDS011;32017;43.700;11.820;2023-03-01T14:21:37;24.40;;;22.60;;
46282;SDS011;32017;43.700;11.820;2023-03-01T14:23:57;28.30;;;25.77;;
46282;SDS011;32017;43.700;11.820;2023-03-01T14:26:21;28.25;;;25.42;;
46282;SDS011;32017;43.700;11.820;2023-03-01T14:28:42;21.65;;;20.23;;
46282;SDS011;32017;43.700;11.820;2023-03-01T14:31:03;20.25;;;18.77;;
46282;SDS011;32017;43.700;11.820;2023-03-01T14:33:43;16.23;;;15.43;;
46282;SDS011;32017;43.700;11.820;2023-03-01T14:36:15;28.40;;;25.15;;
46282;SDS011;32017;43.700;11.820;2023-03-01T14:38:46;17.73;;;16.52;;
46282;SDS011;32017;43.700;11.820;2023-03-01T14:41:11;15.25;;;14.55;;
46282;SDS011;32017;43.700;11.820;2023-03-01T14:43:35;20.80;;;19.08;;
46282;SDS011;32017;43.700;11.820;2023-03-01T14:45:57;11.70;;;11.40;;
46282;SDS011;32017;43.700;11.820;2023-03-01T14:48:17;10.82;;;10.55;;
46282;SDS011;32017;43.700;11.820;2023-03-01T14:50:42;40.72;;;34.08;;
46282;SDS011;32017;43.700;11.820;2023-03-01T14:53:04;18.02;;;16.95;;
46282;SDS011;32017;43.700;11.820;2023-03-01T14:55:36;23.23;;;21.52;;
46282;SDS011;32017;43.700;11.820;2023-03-01T14:58:02;18.13;;;17.10;;
46282;SDS011;32017;43.700;11.820;2023-03-01T15:00:25;15.05;;;14.10;;
46282;SDS011;32017;43.700;11.820;2023-03-01T15:02:47;13.68;;;12.93;;
46282;SDS011;32017;43.700;11.820;2023-03-01T15:05:09;17.53;;;16.27;;
46282;SDS011;32017;43.700;11.820;2023-03-01T15:07:34;21.17;;;19.02;;
46282;SDS011;32017;43.700;11.820;2023-03-01T15:09:58;16.67;;;15.43;;
46282;SDS011;32017;43.700;11.820;2023-03-01T15:14:47;17.25;;;15.82;;
46282;SDS011;32017;43.700;11.820;2023-03-01T15:19:55;15.82;;;15.13;;
46282;SDS011;32017;43.700;11.820;2023-03-01T15:22:15;40.97;;;37.15;;
46282;SDS011;32017;43.700;11.820;2023-03-01T15:24:36;69.95;;;58.03;;
46282;SDS011;32017;43.700;11.820;2023-03-01T15:26:57;32.95;;;30.35;;
46282;SDS011;32017;43.700;11.820;2023-03-01T15:29:22;35.35;;;33.40;;
46282;SDS011;32017;43.700;11.820;2023-03-01T15:32:00;37.63;;;35.67;;
46282;SDS011;32017;43.700;11.820;2023-03-01T15:34:28;34.30;;;32.28;;
46282;SDS011;32017;43.700;11.820;2023-03-01T15:36:55;40.10;;;38.25;;
46282;SDS011;32017;43.700;11.820;2023-03-01T15:39:31;36.22;;;34.72;;
46282;SDS011;32017;43.700;11.820;2023-03-01T15:41:57;32.63;;;31.27;;
46282;SDS011;32017;43.700;11.820;2023-03-01T15:44:25;40.30;;;38.05;;
46282;SDS011;32017;43.700;11.820;2023-03-01T15:47:01;38.92;;;36.60;;
46282;SDS011;32017;43.700;11.820;2023-03-01T15:49:59;34.25;;;33.10;;
46282;SDS011;32017;43.700;11.820;2023-03-01T15:52:27;37.30;;;35.58;;
46282;SDS011;32017;43.700;11.820;2023-03-01T15:54:51;39.28;;;37.60;;
46282;SDS011;32017;43.700;11.820;2023-03-01T15:57:12;44.45;;;41.17;;
46282;SDS011;32017;43.700;11.820;2023-03-01T15:59:34;52.97;;;48.20;;
46282;SDS011;32017;43.700;11.820;2023-03-01T16:01:54;47.00;;;43.60;;
46282;SDS011;32017;43.700;11.820;2023-03-01T16:04:16;41.45;;;38.95;;
46282;SDS011;32017;43.700;11.820;2023-03-01T16:06:42;37.40;;;35.33;;
46282;SDS011;32017;43.700;11.820;2023-03-01T16:09:02;36.35;;;34.55;;
46282;SDS011;32017;43.700;11.820;2023-03-01T16:11:22;35.97;;;34.03;;
46282;SDS011;32017;43.700;11.820;2023-03-01T16:13:42;38.22;;;35.90;;
46282;SDS011;32017;43.700;11.820;2023-03-01T16:16:02;41.17;;;38.13;;
46282;SDS011;32017;43.700;11.820;2023-03-01T16:18:23;35.10;;;32.55;;
46282;SDS011;32017;43.700;11.820;2023-03-01T16:20:43;23.73;;;22.52;;
46282;SDS011;32017;43.700;11.820;2023-03-01T16:23:05;24.27;;;23.10;;
46282;SDS011;32017;43.700;11.820;2023-03-01T16:25:25;16.20;;;15.70;;
46282;SDS011;32017;43.700;11.820;2023-03-01T16:27:46;18.10;;;17.20;;
46282;SDS011;32017;43.700;11.820;2023-03-01T16:30:07;31.60;;;28.95;;
46282;SDS011;32017;43.700;11.820;2023-03-01T16:32:28;34.95;;;32.33;;